createdAt,value
2022-11-20T00:01:32.420Z,27.38
2022-11-20T00:04:00.121Z,27.45
2022-11-20T00:06:29.155Z,26.50
2022-11-20T00:08:58.399Z,26.10
2022-11-20T00:11:27.823Z,28.23
2022-11-20T00:13:58.309Z,27.23
2022-11-20T00:16:26.908Z,26.30
2022-11-20T00:18:54.780Z,25.80
2022-11-20T00:21:24.942Z,26.63
2022-11-20T00:23:55.270Z,25.27
2022-11-20T00:26:24.548Z,29.13
2022-11-20T00:28:53.764Z,25.77
2022-11-20T00:31:38.059Z,29.02
2022-11-20T00:34:05.279Z,28.20
2022-11-20T00:36:34.894Z,29.27
2022-11-20T00:39:01.973Z,25.77
2022-11-20T00:41:30.048Z,27.42
2022-11-20T00:43:57.367Z,25.60
2022-11-20T00:46:26.777Z,29.60
2022-11-20T00:48:54.148Z,29.33
2022-11-20T00:51:25.452Z,27.95
2022-11-20T00:53:52.626Z,27.98
2022-11-20T00:56:20.560Z,27.60
2022-11-20T00:58:49.049Z,28.48
2022-11-20T01:01:19.360Z,27.80
2022-11-20T01:03:48.991Z,25.77
2022-11-20T01:06:41.510Z,26.67
2022-11-20T01:09:13.774Z,25.27
2022-11-20T01:11:43.809Z,27.80
2022-11-20T01:14:15.394Z,27.50
2022-11-20T01:16:45.487Z,26.90
2022-11-20T01:19:33.418Z,26.30
2022-11-20T01:22:00.504Z,26.30
2022-11-20T01:24:27.522Z,25.10
2022-11-20T01:26:54.509Z,26.92
2022-11-20T01:29:24.525Z,25.35
2022-11-20T01:31:52.594Z,24.90
2022-11-20T01:34:21.138Z,25.50
2022-11-20T01:36:49.052Z,24.30
2022-11-20T01:39:20.196Z,24.70
2022-11-20T01:42:10.388Z,25.38
2022-11-20T01:44:58.819Z,23.35
2022-11-20T01:47:47.423Z,24.30
2022-11-20T01:50:27.478Z,23.55
2022-11-20T01:53:02.501Z,22.05
2022-11-20T01:55:36.372Z,21.25
2022-11-20T01:58:06.117Z,21.92
2022-11-20T02:00:35.407Z,21.75
2022-11-20T02:03:07.708Z,23.10
2022-11-20T02:05:48.156Z,22.02
2022-11-20T02:08:15.359Z,22.67
2022-11-20T02:10:42.345Z,22.88
2022-11-20T02:13:29.967Z,22.98
2022-11-20T02:15:57.020Z,24.92
2022-11-20T02:18:24.982Z,24.15
2022-11-20T02:20:58.596Z,22.85
2022-11-20T02:23:55.620Z,25.67
2022-11-20T02:26:24.217Z,25.48
2022-11-20T02:28:51.894Z,25.73
2022-11-20T02:31:19.026Z,25.02
2022-11-20T02:33:45.980Z,27.27
2022-11-20T02:36:17.262Z,25.83
2022-11-20T02:38:44.872Z,26.27
2022-11-20T02:41:12.085Z,24.63
2022-11-20T02:43:39.053Z,24.73
2022-11-20T02:46:09.542Z,26.40
2022-11-20T02:48:36.809Z,26.40
2022-11-20T02:51:03.966Z,26.90
2022-11-20T02:53:31.073Z,26.00
2022-11-20T02:55:58.127Z,26.83
2022-11-20T02:58:25.350Z,25.15
2022-11-20T03:00:53.748Z,27.00
2022-11-20T03:03:20.710Z,25.25
2022-11-20T03:05:47.750Z,27.23
2022-11-20T03:08:14.754Z,26.08
2022-11-20T03:10:41.754Z,29.63
2022-11-20T03:13:08.805Z,26.23
2022-11-20T03:15:37.852Z,26.27
2022-11-20T03:18:07.324Z,24.73
2022-11-20T03:20:35.152Z,26.73
2022-11-20T03:23:02.332Z,25.40
2022-11-20T03:25:29.820Z,26.60
2022-11-20T03:27:56.871Z,26.17
2022-11-20T03:30:27.717Z,25.17
2022-11-20T03:33:00.482Z,22.40
2022-11-20T03:35:27.570Z,25.58
2022-11-20T03:37:54.552Z,24.60
2022-11-20T03:40:21.681Z,24.67
2022-11-20T03:42:53.487Z,23.85
2022-11-20T03:45:20.561Z,23.10
2022-11-20T03:47:47.984Z,26.33
2022-11-20T03:50:15.639Z,27.25
2022-11-20T03:52:42.827Z,25.92
2022-11-20T03:55:09.934Z,26.05
2022-11-20T03:57:36.993Z,25.50
2022-11-20T04:00:07.287Z,24.23
2022-11-20T04:02:34.299Z,25.60
2022-11-20T04:05:01.325Z,26.13
2022-11-20T04:07:30.819Z,26.00
2022-11-20T04:09:58.165Z,25.00
2022-11-20T04:12:25.185Z,25.63
2022-11-20T04:14:52.191Z,25.33
2022-11-20T04:17:19.211Z,25.08
2022-11-20T04:19:46.312Z,23.13
2022-11-20T04:22:13.309Z,25.13
2022-11-20T04:24:40.332Z,26.67
2022-11-20T04:27:07.353Z,26.90
2022-11-20T04:29:34.368Z,25.83
2022-11-20T04:32:01.392Z,25.90
2022-11-20T04:34:28.416Z,25.52
2022-11-20T04:36:55.380Z,25.95
2022-11-20T04:39:22.726Z,25.65
2022-11-20T04:42:09.760Z,24.83
2022-11-20T04:44:36.804Z,24.52
2022-11-20T04:47:03.832Z,26.00
2022-11-20T04:49:32.573Z,24.08
2022-11-20T04:52:00.034Z,26.95
2022-11-20T04:54:27.209Z,26.33
2022-11-20T04:56:54.186Z,25.60
2022-11-20T04:59:21.463Z,24.15
2022-11-20T05:01:48.825Z,25.02
2022-11-20T05:04:15.911Z,25.30
2022-11-20T05:06:42.945Z,23.58
2022-11-20T05:09:10.095Z,24.80
2022-11-20T05:11:37.053Z,24.67
2022-11-20T05:14:04.240Z,24.95
2022-11-20T05:16:31.234Z,22.45
2022-11-20T05:19:01.531Z,23.98
2022-11-20T05:21:32.409Z,22.50
2022-11-20T05:23:59.610Z,22.63
2022-11-20T05:26:26.582Z,24.52
2022-11-20T05:28:54.012Z,23.42
2022-11-20T05:31:27.807Z,23.42
2022-11-20T05:33:58.345Z,22.98
2022-11-20T05:36:25.803Z,23.30
2022-11-20T05:38:56.679Z,22.42
2022-11-20T05:41:25.358Z,23.63
2022-11-20T05:43:52.500Z,21.80
2022-11-20T05:46:26.703Z,22.67
2022-11-20T05:48:58.873Z,22.27
2022-11-20T05:51:29.286Z,22.92
2022-11-20T05:53:59.483Z,21.73
2022-11-20T05:56:28.502Z,21.05
2022-11-20T05:58:55.578Z,21.83
2022-11-20T06:01:28.042Z,22.10
2022-11-20T06:03:56.185Z,25.63
2022-11-20T06:06:23.742Z,21.08
2022-11-20T06:08:50.796Z,22.30
2022-11-20T06:11:18.760Z,20.48
2022-11-20T06:13:46.747Z,21.13
2022-11-20T06:16:16.304Z,20.00
2022-11-20T06:18:43.598Z,21.85
2022-11-20T06:21:14.298Z,22.42
2022-11-20T06:23:41.763Z,22.30
2022-11-20T06:26:12.007Z,26.50
2022-11-20T06:28:39.383Z,23.52
2022-11-20T06:31:07.262Z,22.35
2022-11-20T06:33:34.990Z,21.27
2022-11-20T06:36:08.909Z,20.85
2022-11-20T06:41:05.426Z,20.73
2022-11-20T06:43:32.500Z,22.20
2022-11-20T06:46:00.159Z,22.10
2022-11-20T06:48:28.796Z,23.58
2022-11-20T06:50:56.295Z,22.58
2022-11-20T06:53:24.199Z,22.75
2022-11-20T06:55:57.446Z,21.85
2022-11-20T06:58:30.380Z,20.25
2022-11-20T07:01:01.916Z,24.35
2022-11-20T07:03:29.214Z,21.67
2022-11-20T07:05:59.157Z,19.00
2022-11-20T07:08:26.802Z,20.83
2022-11-20T07:11:01.795Z,21.98
2022-11-20T07:13:29.714Z,23.52
2022-11-20T07:16:00.177Z,23.73
2022-11-20T07:18:27.608Z,24.15
2022-11-20T07:20:56.750Z,26.20
2022-11-20T07:23:25.586Z,30.27
2022-11-20T07:25:54.838Z,28.98
2022-11-20T07:28:21.852Z,25.80
2022-11-20T07:30:54.350Z,22.73
2022-11-20T07:33:23.644Z,21.90
2022-11-20T07:35:50.677Z,20.98
2022-11-20T07:38:17.883Z,23.33
2022-11-20T07:40:45.026Z,21.95
2022-11-20T07:43:12.120Z,22.85
2022-11-20T07:45:39.188Z,21.27
2022-11-20T07:48:06.390Z,23.85
2022-11-20T07:50:33.378Z,24.13
2022-11-20T07:53:05.151Z,23.70
2022-11-20T07:55:32.472Z,22.52
2022-11-20T07:57:59.739Z,22.05
2022-11-20T08:00:27.953Z,23.08
2022-11-20T08:02:55.524Z,24.67
2022-11-20T08:05:22.669Z,23.65
2022-11-20T08:07:51.736Z,33.13
2022-11-20T08:10:18.927Z,27.30
2022-11-20T08:13:09.123Z,23.58
2022-11-20T08:15:36.917Z,28.65
2022-11-20T08:18:31.193Z,33.53
2022-11-20T08:20:59.513Z,26.35
2022-11-20T08:23:26.498Z,27.35
2022-11-20T08:25:53.608Z,24.30
2022-11-20T08:28:22.529Z,27.13
2022-11-20T08:30:51.281Z,25.98
2022-11-20T08:33:22.618Z,23.85
2022-11-20T08:35:49.602Z,26.27
2022-11-20T08:38:16.677Z,26.30
2022-11-20T08:41:03.651Z,27.00
2022-11-20T08:43:49.155Z,26.23
2022-11-20T08:46:16.288Z,25.35
2022-11-20T08:48:44.053Z,21.95
2022-11-20T08:51:12.019Z,21.75
2022-11-20T08:53:39.959Z,22.67
2022-11-20T08:56:07.779Z,22.50
2022-11-20T08:58:54.898Z,21.30
2022-11-20T09:01:24.933Z,29.50
2022-11-20T09:03:52.121Z,27.83
2022-11-20T09:06:20.265Z,28.17
2022-11-20T09:08:49.187Z,28.95
2022-11-20T09:11:16.167Z,27.73
2022-11-20T09:13:43.233Z,29.48
2022-11-20T09:16:10.506Z,26.48
2022-11-20T09:18:38.444Z,28.23
2022-11-20T09:21:08.219Z,26.80
2022-11-20T09:23:36.979Z,26.52
2022-11-20T09:26:06.440Z,26.88
2022-11-20T09:28:34.099Z,27.70
2022-11-20T09:31:01.432Z,26.02
2022-11-20T09:33:28.603Z,27.85
2022-11-20T09:35:55.652Z,29.90
2022-11-20T09:38:22.768Z,28.95
2022-11-20T09:41:06.764Z,28.77
2022-11-20T09:43:59.075Z,27.90
2022-11-20T09:47:05.804Z,25.80
2022-11-20T09:49:59.581Z,24.85
2022-11-20T09:52:55.253Z,26.00
2022-11-20T09:55:25.623Z,40.05
2022-11-20T09:57:53.530Z,41.10
2022-11-20T10:00:22.327Z,30.52
2022-11-20T10:03:14.216Z,63.60
2022-11-20T10:05:48.508Z,35.78
2022-11-20T10:08:41.963Z,30.52
2022-11-20T10:11:44.000Z,36.78
2022-11-20T10:14:50.860Z,25.73
2022-11-20T10:20:23.670Z,30.65
2022-11-20T10:23:30.438Z,36.55
2022-11-20T10:26:03.710Z,25.23
2022-11-20T10:29:10.521Z,24.88
2022-11-20T10:31:41.420Z,22.52
2022-11-20T10:34:34.118Z,32.45
2022-11-20T10:37:06.241Z,33.00
2022-11-20T10:39:40.379Z,30.27
2022-11-20T10:42:14.135Z,27.00
2022-11-20T10:45:07.152Z,22.58
2022-11-20T10:47:34.649Z,25.38
2022-11-20T10:50:10.852Z,24.63
2022-11-20T10:53:18.058Z,26.58
2022-11-20T10:55:57.515Z,28.05
2022-11-20T10:58:57.234Z,25.58
2022-11-20T11:04:51.966Z,25.95
2022-11-20T11:07:45.076Z,26.92
2022-11-20T11:10:51.898Z,27.90
2022-11-20T11:13:24.934Z,27.92
2022-11-20T11:15:53.040Z,27.50
2022-11-20T11:18:41.148Z,27.02
2022-11-20T11:21:10.409Z,26.85
2022-11-20T11:24:13.441Z,25.80
2022-11-20T11:27:16.534Z,26.70
2022-11-20T11:29:48.250Z,27.67
2022-11-20T11:32:21.804Z,25.30
2022-11-20T11:35:08.242Z,25.85
2022-11-20T11:37:38.635Z,25.75
2022-11-20T11:40:24.731Z,24.73
2022-11-20T11:42:58.013Z,24.33
2022-11-20T11:45:27.444Z,26.17
2022-11-20T11:47:56.961Z,24.40
2022-11-20T11:50:26.360Z,25.40
2022-11-20T11:53:24.115Z,25.75
2022-11-20T12:02:05.421Z,27.33
2022-11-20T12:04:56.339Z,24.95
2022-11-20T12:07:46.546Z,26.27
2022-11-20T12:10:21.772Z,26.88
2022-11-20T12:12:54.755Z,28.00
2022-11-20T12:15:32.400Z,27.95
2022-11-20T12:18:01.787Z,25.27
2022-11-20T12:20:43.164Z,27.02
2022-11-20T12:23:39.104Z,26.90
2022-11-20T12:29:36.349Z,26.33
2022-11-20T12:35:57.031Z,27.33
2022-11-20T12:38:52.279Z,30.80
2022-11-20T12:45:39.746Z,27.67
2022-11-20T12:48:47.662Z,30.10
2022-11-20T12:55:09.502Z,30.70
2022-11-20T12:57:59.781Z,30.80
2022-11-20T13:00:31.575Z,32.28
2022-11-20T13:06:34.880Z,34.40
2022-11-20T13:12:19.733Z,33.53
2022-11-20T13:15:26.733Z,33.05
2022-11-20T13:18:00.798Z,30.42
2022-11-20T13:34:04.759Z,30.83
2022-11-20T13:40:33.351Z,31.48
2022-11-20T21:23:59.166Z,80.43
2022-11-20T21:26:27.416Z,55.65
2022-11-20T21:28:54.560Z,47.65
2022-11-20T21:31:23.619Z,47.40
2022-11-20T22:46:56.770Z,27.55
2022-11-20T22:52:16.343Z,31.10
2022-11-20T22:54:52.158Z,29.00
2022-11-20T23:00:21.942Z,26.67
2022-11-20T23:02:53.783Z,25.77
2022-11-20T23:05:21.067Z,29.85
2022-11-20T23:10:30.729Z,29.08
2022-11-20T23:12:58.316Z,27.23
2022-11-20T23:15:25.443Z,27.67
2022-11-20T23:18:02.493Z,27.80
2022-11-20T23:23:11.037Z,27.67
2022-11-20T23:25:39.215Z,27.45
2022-11-20T23:28:06.511Z,25.92
2022-11-20T23:30:33.664Z,27.30
2022-11-20T23:33:01.440Z,27.17
2022-11-20T23:35:28.829Z,28.90
2022-11-20T23:37:56.076Z,26.70
2022-11-20T23:40:23.499Z,25.85
2022-11-20T23:43:12.601Z,27.35
2022-11-20T23:45:45.193Z,26.60
2022-11-20T23:56:24.674Z,27.80
2022-11-20T23:58:52.035Z,27.27
